createdAt,value
2023-07-12T00:00:34.749Z,21.23
2023-07-12T00:01:38.870Z,22.81
2023-07-12T00:03:36.913Z,21.72
2023-07-12T00:04:41.166Z,22.24
2023-07-12T00:06:38.079Z,22.25
2023-07-12T00:07:41.880Z,24.08
2023-07-12T00:09:38.770Z,20.93
2023-07-12T00:10:41.984Z,22.19
2023-07-12T00:12:38.229Z,22.05
2023-07-12T00:13:41.570Z,23.52
2023-07-12T00:15:38.162Z,21.96
2023-07-12T00:16:42.126Z,22.61
2023-07-12T00:18:39.730Z,23.86
2023-07-12T00:19:43.256Z,23.47
2023-07-12T00:21:40.053Z,21.46
2023-07-12T00:22:43.417Z,20.6
2023-07-12T00:24:40.026Z,24.22
2023-07-12T00:25:43.311Z,20.95
2023-07-12T00:27:39.809Z,21.68
2023-07-12T00:28:43.113Z,21.49
2023-07-12T00:30:39.387Z,21.12
2023-07-12T00:31:43.438Z,23.44
2023-07-12T00:33:39.938Z,22.57
2023-07-12T00:34:43.133Z,23.06
2023-07-12T00:36:39.495Z,24.15
2023-07-12T00:37:42.527Z,23.22
2023-07-12T00:39:39.614Z,22.13
2023-07-12T00:40:43.379Z,21.77
2023-07-12T00:42:40.990Z,21.5
2023-07-12T00:43:44.649Z,22.18
2023-07-12T00:45:41.233Z,21.23
2023-07-12T00:46:45.484Z,20.95
2023-07-12T00:48:42.331Z,20.52
2023-07-12T00:49:46.304Z,22.81
2023-07-12T00:51:42.673Z,21.32
2023-07-12T00:52:46.289Z,21.42
2023-07-12T00:54:43.271Z,23.06
2023-07-12T00:55:46.294Z,23.1
2023-07-12T00:57:42.658Z,23.59
2023-07-12T00:58:46.047Z,21.56
2023-07-12T01:00:35.675Z,23.44
2023-07-12T01:01:39.743Z,20.56
2023-07-12T01:03:37.773Z,21.6
2023-07-12T01:04:41.528Z,21.05
2023-07-12T01:06:38.261Z,22.47
2023-07-12T01:07:41.579Z,21.42
2023-07-12T01:09:38.609Z,21.11
2023-07-12T01:10:41.978Z,22.56
2023-07-12T01:12:38.657Z,22.32
2023-07-12T01:13:41.813Z,20.91
2023-07-12T01:15:38.726Z,21.83
2023-07-12T01:16:42.172Z,22.69
2023-07-12T01:18:39.778Z,20.61
2023-07-12T01:19:43.418Z,22.54
2023-07-12T01:21:40.163Z,21.78
2023-07-12T01:22:43.560Z,20.83
2023-07-12T01:24:40.138Z,21.57
2023-07-12T01:25:43.149Z,20.7
2023-07-12T01:27:40.085Z,21.08
2023-07-12T01:28:43.455Z,21.54
2023-07-12T01:30:40.208Z,22.66
2023-07-12T01:31:44.029Z,23.68
2023-07-12T01:33:41.027Z,20.57
2023-07-12T01:34:44.649Z,22.1
2023-07-12T01:36:41.239Z,20.67
2023-07-12T01:37:44.641Z,20.28
2023-07-12T01:39:41.173Z,20.38
2023-07-12T01:40:44.936Z,20.43
2023-07-12T01:42:41.568Z,20.31
2023-07-12T01:43:44.904Z,19.93
2023-07-12T01:45:42.344Z,20.27
2023-07-12T01:46:45.790Z,20.19
2023-07-12T01:48:42.806Z,19.09
2023-07-12T01:49:46.161Z,22.45
2023-07-12T01:51:42.525Z,20.23
2023-07-12T01:52:45.877Z,19.14
2023-07-12T01:54:42.765Z,20.31
2023-07-12T01:55:46.001Z,22.01
2023-07-12T01:57:42.665Z,21.81
2023-07-12T01:58:45.848Z,21.09
2023-07-12T02:00:34.927Z,19.95
2023-07-12T02:01:38.781Z,21.95
2023-07-12T02:03:36.933Z,19.92
2023-07-12T02:04:40.283Z,20.73
2023-07-12T02:06:36.757Z,23.02
2023-07-12T02:07:40.200Z,22.16
2023-07-12T02:09:37.090Z,21.19
2023-07-12T02:10:40.383Z,21.3
2023-07-12T02:12:36.789Z,21.23
2023-07-12T02:13:40.277Z,20.62
2023-07-12T02:15:37.211Z,19.22
2023-07-12T02:16:40.721Z,19.54
2023-07-12T02:18:38.293Z,21.59
2023-07-12T02:19:41.666Z,19.83
2023-07-12T02:21:38.189Z,25.34
2023-07-12T02:22:41.306Z,19.81
2023-07-12T02:24:38.033Z,22.25
2023-07-12T02:25:41.190Z,21.24
2023-07-12T02:27:38.020Z,21.07
2023-07-12T02:28:41.068Z,19.53
2023-07-12T02:30:37.543Z,19.46
2023-07-12T02:31:41.069Z,19.56
2023-07-12T02:33:38.163Z,19
2023-07-12T02:34:41.637Z,20.07
2023-07-12T02:36:38.258Z,18.3
2023-07-12T02:37:41.530Z,21.36
2023-07-12T02:39:38.165Z,22.41
2023-07-12T02:40:41.200Z,18.99
2023-07-12T02:42:37.724Z,19.41
2023-07-12T02:43:40.951Z,18.77
2023-07-12T02:45:37.734Z,19.15
2023-07-12T02:46:41.288Z,19.48
2023-07-12T02:48:38.337Z,18.53
2023-07-12T02:49:41.702Z,19.28
2023-07-12T02:51:38.332Z,20.36
2023-07-12T02:52:41.294Z,19.69
2023-07-12T02:54:40.428Z,19.53
2023-07-12T02:55:43.622Z,18.18
2023-07-12T02:57:40.202Z,21.87
2023-07-12T02:58:44.019Z,18.93
2023-07-12T03:00:34.583Z,20.49
2023-07-12T03:01:38.360Z,19.48
2023-07-12T03:03:36.602Z,20.08
2023-07-12T03:04:40.051Z,18.92
2023-07-12T03:06:37.731Z,20.92
2023-07-12T03:07:40.858Z,21.56
2023-07-12T03:09:37.415Z,22.1
2023-07-12T03:10:40.670Z,21.25
2023-07-12T03:12:37.540Z,20.34
2023-07-12T03:13:41.622Z,21.5
2023-07-12T03:15:39.119Z,20.28
2023-07-12T03:16:42.694Z,18.73
2023-07-12T03:18:40.831Z,21.8
2023-07-12T03:19:44.199Z,20.81
2023-07-12T03:21:40.990Z,21.63
2023-07-12T03:22:44.030Z,20.27
2023-07-12T03:24:40.689Z,20.17
2023-07-12T03:25:43.958Z,20.58
2023-07-12T03:27:40.193Z,21.44
2023-07-12T03:28:43.202Z,18.92
2023-07-12T03:30:40.018Z,20.74
2023-07-12T03:31:44.073Z,20.9
2023-07-12T03:33:40.792Z,19.47
2023-07-12T03:34:44.136Z,18.45
2023-07-12T03:36:40.641Z,19.88
2023-07-12T03:37:44.110Z,20.86
2023-07-12T03:39:41.503Z,18.01
2023-07-12T03:40:44.778Z,20.17
2023-07-12T03:42:41.660Z,19.24
2023-07-12T03:43:45.169Z,19.99
2023-07-12T03:45:41.545Z,18.52
2023-07-12T03:46:45.124Z,18.83
2023-07-12T03:48:42.797Z,20.22
2023-07-12T03:49:46.298Z,18.06
2023-07-12T03:51:42.820Z,18.71
2023-07-12T03:52:45.888Z,19.26
2023-07-12T03:54:44.682Z,19.87
2023-07-12T03:55:47.569Z,18.44
2023-07-12T03:57:44.222Z,19.91
2023-07-12T03:58:47.471Z,20.95
2023-07-12T04:00:35.444Z,18.52
2023-07-12T04:01:39.745Z,17.73
2023-07-12T04:03:40.396Z,19.08
2023-07-12T04:04:43.745Z,21.2
2023-07-12T04:06:07.463Z,20.02
2023-07-12T04:07:10.904Z,18.79
2023-07-12T04:09:07.868Z,19.53
2023-07-12T04:10:11.262Z,20.41
2023-07-12T04:12:08.963Z,19.8
2023-07-12T04:13:12.564Z,18.86
2023-07-12T04:15:09.836Z,19.22
2023-07-12T04:16:13.610Z,19.15
2023-07-12T04:18:13.167Z,18.48
2023-07-12T04:19:16.794Z,17.36
2023-07-12T04:21:14.126Z,17.14
2023-07-12T04:22:17.301Z,18.14
2023-07-12T04:24:13.935Z,18.99
2023-07-12T04:25:17.502Z,21.61
2023-07-12T04:27:16.567Z,24.24
2023-07-12T04:28:19.856Z,19.82
2023-07-12T04:30:16.729Z,20.03
2023-07-12T04:31:21.196Z,19.55
2023-07-12T04:33:18.721Z,19.73
2023-07-12T04:34:39.926Z,18
2023-07-12T04:36:36.915Z,18.94
2023-07-12T04:37:40.578Z,19.92
2023-07-12T04:39:37.517Z,20.87
2023-07-12T04:40:41.047Z,19.54
2023-07-12T04:42:40.278Z,17.98
2023-07-12T04:43:43.484Z,20.07
2023-07-12T04:45:40.258Z,18.09
2023-07-12T04:46:44.109Z,19.51
2023-07-12T04:48:41.186Z,20.74
2023-07-12T04:49:44.657Z,19.84
2023-07-12T04:51:41.342Z,19.66
2023-07-12T04:52:44.745Z,20.01
2023-07-12T04:54:41.113Z,18.14
2023-07-12T04:55:45.274Z,19.1
2023-07-12T04:57:42.139Z,19.37
2023-07-12T04:58:45.419Z,19.87
2023-07-12T05:00:34.977Z,18.31
2023-07-12T05:01:38.768Z,18.85
2023-07-12T05:03:36.598Z,19.41
2023-07-12T05:04:40.405Z,18.56
2023-07-12T05:06:46.408Z,19.29
2023-07-12T05:07:49.578Z,17.72
2023-07-12T05:09:46.360Z,19.14
2023-07-12T05:10:49.821Z,18.69
2023-07-12T05:12:46.645Z,18.83
2023-07-12T05:13:50.071Z,18.14
2023-07-12T05:15:46.853Z,19.03
2023-07-12T05:16:50.682Z,19.28
2023-07-12T05:18:49.095Z,19.85
2023-07-12T05:19:52.403Z,18.05
2023-07-12T05:21:49.449Z,20.2
2023-07-12T05:22:52.657Z,18.94
2023-07-12T05:24:52.146Z,20.23
2023-07-12T05:25:56.328Z,19.44
2023-07-12T05:27:52.877Z,20.6
2023-07-12T05:28:56.319Z,19.4
2023-07-12T05:30:53.480Z,18.85
2023-07-12T05:31:58.782Z,19.16
2023-07-12T05:33:56.210Z,19.5
2023-07-12T05:34:59.685Z,19.63
2023-07-12T05:36:56.533Z,20.95
2023-07-12T05:37:59.896Z,19.01
2023-07-12T05:39:56.565Z,19.15
2023-07-12T05:40:59.861Z,19.86
2023-07-12T05:42:56.565Z,19.59
2023-07-12T05:43:59.906Z,17.69
2023-07-12T05:45:56.611Z,18.68
2023-07-12T05:47:00.511Z,21.01
2023-07-12T05:48:58.501Z,17.88
2023-07-12T05:50:01.988Z,19.99
2023-07-12T05:51:58.860Z,20.62
2023-07-12T05:53:06.038Z,18.41
2023-07-12T05:55:03.465Z,18.13
2023-07-12T05:56:06.968Z,21.64
2023-07-12T05:58:07.931Z,18.76
2023-07-12T05:59:11.643Z,19.99
2023-07-12T06:01:38.679Z,20.44
2023-07-12T06:03:36.522Z,19.18
2023-07-12T06:04:40.401Z,19.54
2023-07-12T06:06:37.510Z,19.82
2023-07-12T06:07:41.226Z,18.53
2023-07-12T06:09:38.022Z,19.1
2023-07-12T06:10:41.563Z,19.97
2023-07-12T06:12:38.983Z,20.59
2023-07-12T06:13:42.462Z,18.87
2023-07-12T06:15:39.257Z,17.89
2023-07-12T06:16:45.218Z,20.8
2023-07-12T06:18:43.003Z,19.95
2023-07-12T06:19:46.339Z,19.28
2023-07-12T06:21:43.321Z,19.63
2023-07-12T06:22:49.121Z,19.33
2023-07-12T06:24:46.306Z,18.56
2023-07-12T06:25:49.593Z,20.58
2023-07-12T06:27:46.086Z,19.39
2023-07-12T06:28:49.482Z,19.67
2023-07-12T06:30:47.176Z,19.59
2023-07-12T06:31:50.894Z,18.31
2023-07-12T06:33:49.533Z,17.93
2023-07-12T06:34:52.961Z,18.66
2023-07-12T06:36:49.723Z,20.07
2023-07-12T06:37:52.794Z,20.65
2023-07-12T06:39:49.744Z,18.13
2023-07-12T06:40:53.310Z,19.78
2023-07-12T06:42:50.259Z,20.46
2023-07-12T06:43:53.515Z,18.01
2023-07-12T06:45:50.409Z,18.93
2023-07-12T06:46:54.150Z,18.35
2023-07-12T06:48:54.376Z,19.02
2023-07-12T06:49:57.889Z,18.98
2023-07-12T06:51:54.819Z,20.29
2023-07-12T06:52:57.944Z,19.23
2023-07-12T06:54:56.461Z,17.83
2023-07-12T06:55:59.976Z,20.68
2023-07-12T06:57:56.698Z,18.7
2023-07-12T06:59:00.051Z,19.16
2023-07-12T07:01:39.140Z,18.13
2023-07-12T07:03:36.574Z,21.45
2023-07-12T07:04:40.271Z,18.9
2023-07-12T07:06:36.907Z,18.62
2023-07-12T07:07:40.314Z,20.54
2023-07-12T07:09:37.555Z,19.85
2023-07-12T07:10:40.884Z,18.31
2023-07-12T07:12:37.623Z,21.18
2023-07-12T07:13:41.047Z,20.34
2023-07-12T07:15:38.044Z,19.11
2023-07-12T07:16:42.005Z,20.46
2023-07-12T07:18:42.158Z,19.29
2023-07-12T07:19:45.894Z,20.56
2023-07-12T07:21:44.127Z,20.55
2023-07-12T07:22:47.741Z,18.28
2023-07-12T07:24:45.565Z,18.67
2023-07-12T07:25:49.639Z,20.84
2023-07-12T07:27:46.627Z,19.43
2023-07-12T07:28:49.909Z,18.31
2023-07-12T07:30:46.847Z,19.3
2023-07-12T07:31:50.660Z,21.25
2023-07-12T07:33:47.991Z,20.01
2023-07-12T07:34:51.306Z,20.32
2023-07-12T07:36:48.359Z,19.1
2023-07-12T07:37:51.708Z,20.32
2023-07-12T07:39:49.050Z,20.85
2023-07-12T07:40:52.432Z,20.15
2023-07-12T07:42:49.915Z,19.32
2023-07-12T07:43:53.613Z,21.41
2023-07-12T07:45:52.861Z,21.36
2023-07-12T07:46:56.703Z,19.53
2023-07-12T07:48:54.203Z,20.87
2023-07-12T07:49:57.397Z,19.48
2023-07-12T07:51:53.843Z,21.25
2023-07-12T07:52:57.610Z,20.11
2023-07-12T07:54:54.464Z,19.26
2023-07-12T07:55:57.627Z,20.92
2023-07-12T07:57:54.337Z,20.7
2023-07-12T07:58:57.770Z,18.29
2023-07-12T08:01:38.254Z,19.61
2023-07-12T08:03:36.390Z,21.51
2023-07-12T08:04:41.258Z,19.64
2023-07-12T08:06:37.719Z,20.98
2023-07-12T08:07:41.171Z,21.1
2023-07-12T08:09:38.314Z,21.87
2023-07-12T08:10:42.021Z,20.61
2023-07-12T08:12:40.671Z,20.03
2023-07-12T08:13:44.121Z,22.34
2023-07-12T08:15:40.736Z,21.21
2023-07-12T08:16:44.253Z,19.8
2023-07-12T08:18:44.935Z,20.06
2023-07-12T08:19:48.180Z,20.4
2023-07-12T08:21:45.363Z,20.9
2023-07-12T08:22:48.770Z,23.35
2023-07-12T08:24:47.422Z,20.39
2023-07-12T08:25:50.784Z,20.66
2023-07-12T08:28:11.249Z,19.79
2023-07-12T08:29:14.556Z,20.27
2023-07-12T08:31:12.050Z,22.3
2023-07-12T08:32:19.369Z,22.77
2023-07-12T08:34:16.670Z,20.65
2023-07-12T08:35:20.601Z,19.62
2023-07-12T08:37:34.120Z,20.53
2023-07-12T08:38:38.700Z,22.01
2023-07-12T08:40:35.476Z,20.58
2023-07-12T08:41:39.030Z,20.01
2023-07-12T08:43:35.865Z,22.05
2023-07-12T08:44:39.404Z,21.03
2023-07-12T08:46:37.762Z,21.06
2023-07-12T08:47:41.330Z,21.98
2023-07-12T08:49:38.648Z,19.8
2023-07-12T08:50:41.850Z,20.21
2023-07-12T08:52:42.037Z,21.8
2023-07-12T08:53:45.451Z,22.7
2023-07-12T08:55:56.691Z,21.42
2023-07-12T08:57:00.103Z,20.71
2023-07-12T08:58:56.914Z,21.81
2023-07-12T09:00:00.045Z,21.52
2023-07-12T09:01:37.954Z,22.19
2023-07-12T09:03:35.190Z,20.77
2023-07-12T09:04:39.097Z,21.5
2023-07-12T09:06:36.112Z,22.33
2023-07-12T09:07:39.451Z,21.69
2023-07-12T09:09:36.841Z,21.77
2023-07-12T09:10:40.049Z,21.11
2023-07-12T09:12:37.293Z,22.05
2023-07-12T09:13:40.836Z,23.04
2023-07-12T09:15:37.635Z,21.72
2023-07-12T09:16:41.334Z,21.14
2023-07-12T09:18:39.264Z,24.14
2023-07-12T09:19:43.075Z,20.95
2023-07-12T09:21:39.991Z,20.98
2023-07-12T09:22:46.232Z,22.07
2023-07-12T09:24:43.444Z,22.31
2023-07-12T09:25:46.558Z,21.47
2023-07-12T09:27:43.610Z,22.69
2023-07-12T09:28:47.398Z,22.62
2023-07-12T09:30:44.826Z,22.71
2023-07-12T09:31:48.856Z,22.53
2023-07-12T09:33:47.415Z,22.91
2023-07-12T09:34:53.794Z,22.46
2023-07-12T09:36:50.907Z,23.03
2023-07-12T09:37:54.277Z,22.99
2023-07-12T09:39:51.290Z,23.31
2023-07-12T09:40:54.452Z,23.34
2023-07-12T09:42:51.551Z,23.55
2023-07-12T09:43:54.954Z,23.12
2023-07-12T09:46:13.896Z,22.83
2023-07-12T09:47:17.804Z,23.36
2023-07-12T09:49:14.765Z,25.52
2023-07-12T09:50:18.132Z,24.7
2023-07-12T09:52:15.049Z,23.35
2023-07-12T09:53:18.167Z,23.1
2023-07-12T09:55:14.970Z,24.05
2023-07-12T09:56:19.127Z,25.48
2023-07-12T09:58:16.458Z,23.14
2023-07-12T09:59:19.972Z,24.78
2023-07-12T10:00:35.313Z,23.7
2023-07-12T10:01:39.065Z,23.25
2023-07-12T10:03:36.575Z,23.78
2023-07-12T10:04:40.192Z,22.94
2023-07-12T10:06:39.084Z,23.35
2023-07-12T10:07:42.498Z,23.47
2023-07-12T10:09:39.469Z,22.78
2023-07-12T10:10:44.757Z,22.52
2023-07-12T10:12:41.473Z,22.2
2023-07-12T10:13:44.920Z,23.58
2023-07-12T10:15:41.759Z,23.62
2023-07-12T10:16:45.341Z,22.26
2023-07-12T10:18:43.406Z,23.09
2023-07-12T10:19:46.890Z,22.8
2023-07-12T10:21:43.787Z,23.08
2023-07-12T10:22:47.096Z,22.26
2023-07-12T10:24:44.034Z,25.09
2023-07-12T10:25:47.583Z,22.52
2023-07-12T10:27:44.134Z,22.2
2023-07-12T10:28:49.796Z,22.25
2023-07-12T10:30:47.497Z,22.9
2023-07-12T10:31:51.192Z,22.29
2023-07-12T10:33:48.128Z,22.44
2023-07-12T10:34:54.322Z,24.41
2023-07-12T10:36:51.400Z,22.4
2023-07-12T10:37:54.648Z,22.25
2023-07-12T10:39:54.170Z,25.01
2023-07-12T10:40:57.746Z,24.59
2023-07-12T10:42:54.922Z,21.96
2023-07-12T10:43:58.301Z,22.37
2023-07-12T10:45:55.453Z,22.72
2023-07-12T10:47:02.016Z,24.9
2023-07-12T10:48:59.439Z,22.61
2023-07-12T10:50:03.074Z,22.3
2023-07-12T10:52:03.113Z,22.64
2023-07-12T10:53:06.510Z,23.12
2023-07-12T10:55:20.578Z,22.35
2023-07-12T10:56:23.976Z,21.75
2023-07-12T10:58:20.800Z,22.4
2023-07-12T10:59:24.260Z,22.68
2023-07-12T11:00:35.308Z,20.78
2023-07-12T11:01:39.270Z,23.15
2023-07-12T11:03:36.902Z,21.4
2023-07-12T11:04:44.632Z,22.51
2023-07-12T11:06:41.644Z,21.69
2023-07-12T11:07:45.227Z,23.53
2023-07-12T11:09:44.118Z,22.19
2023-07-12T11:10:49.132Z,20.81
2023-07-12T11:12:46.298Z,21.24
2023-07-12T11:13:49.828Z,21.72
2023-07-12T11:15:47.063Z,21.74
2023-07-12T11:16:51.207Z,21.68
2023-07-12T11:18:49.655Z,20.92
2023-07-12T11:19:53.516Z,21.26
2023-07-12T11:21:50.760Z,21.7
2023-07-12T11:22:54.124Z,22.31
2023-07-12T11:24:51.097Z,22.66
2023-07-12T11:25:54.496Z,21.97
2023-07-12T11:27:51.664Z,23.62
2023-07-12T11:28:55.140Z,22.06
2023-07-12T11:30:52.531Z,22.4
2023-07-12T11:31:56.248Z,22.68
2023-07-12T11:33:53.561Z,26.44
2023-07-12T11:34:56.872Z,22.49
2023-07-12T11:36:54.088Z,23.35
2023-07-12T11:37:57.487Z,22.85
2023-07-12T11:39:54.301Z,23.61
2023-07-12T11:40:57.863Z,23.54
2023-07-12T11:42:54.658Z,25.47
2023-07-12T11:43:58.305Z,23.06
2023-07-12T11:45:55.239Z,24.9
2023-07-12T11:46:59.980Z,22.05
2023-07-12T11:48:57.906Z,23.59
2023-07-12T11:50:01.261Z,23.89
2023-07-12T11:51:57.981Z,23.12
2023-07-12T11:53:01.414Z,25.18
2023-07-12T11:54:58.772Z,23.38
2023-07-12T11:56:02.325Z,23.92
2023-07-12T11:57:59.618Z,23.27
2023-07-12T11:59:03.458Z,23.36
2023-07-12T12:01:38.206Z,24.61
2023-07-12T12:03:36.681Z,22.37
2023-07-12T12:04:41.426Z,21.95
2023-07-12T12:06:39.120Z,22.42
2023-07-12T12:07:42.448Z,22.07
2023-07-12T12:09:39.599Z,23.23
2023-07-12T12:10:42.817Z,22.65
2023-07-12T12:12:41.164Z,22.24
2023-07-12T12:13:45.366Z,21.46
2023-07-12T12:15:42.920Z,22.27
2023-07-12T12:16:46.234Z,21.76
2023-07-12T12:18:45.662Z,23.82
2023-07-12T12:19:51.927Z,24.1
2023-07-12T12:21:55.182Z,22.76
2023-07-12T12:23:05.687Z,22.72
2023-07-12T12:25:02.420Z,22.66
2023-07-12T12:26:05.934Z,22.99
2023-07-12T12:28:18.842Z,22.14
2023-07-12T12:29:22.343Z,22.38
2023-07-12T12:31:19.884Z,22.65
2023-07-12T12:32:24.858Z,23.43
2023-07-12T12:34:22.578Z,22
2023-07-12T12:35:26.326Z,21.9
2023-07-12T12:37:23.289Z,22.55
2023-07-12T12:38:29.438Z,21.4
2023-07-12T12:40:26.163Z,21.81
2023-07-12T12:41:29.805Z,21.79
2023-07-12T12:43:26.707Z,21.97
2023-07-12T12:44:30.115Z,22.62
2023-07-12T12:47:04.217Z,22.43
2023-07-12T12:58:18.075Z,23.25
2023-07-12T13:05:49.101Z,22.94
2023-07-12T13:19:40.085Z,24.1
2023-07-12T13:21:42.841Z,22.72
2023-07-12T13:22:46.734Z,23.56
2023-07-12T13:24:55.701Z,23.37
2023-07-12T13:25:59.528Z,23.71
2023-07-12T13:27:56.477Z,24.34
2023-07-12T13:28:59.665Z,24.19
2023-07-12T13:30:56.700Z,24.63
2023-07-12T13:32:00.305Z,24.6
2023-07-12T13:34:18.669Z,24.17
2023-07-12T13:37:07.361Z,25.47
2023-07-12T13:39:41.264Z,27.33
2023-07-12T13:45:34.147Z,26.55
2023-07-12T13:46:38.050Z,25.81
2023-07-12T13:48:37.072Z,28.99
2023-07-12T13:49:40.839Z,26.75
2023-07-12T13:51:37.478Z,27.7
2023-07-12T13:52:40.752Z,27.63
2023-07-12T13:54:37.664Z,27.97
2023-07-12T13:59:16.684Z,28.6
2023-07-12T14:01:24.745Z,27.87
2023-07-12T14:03:05.104Z,28.1
2023-07-12T14:06:02.923Z,28.94
2023-07-12T14:10:32.314Z,29.11
2023-07-12T14:11:35.828Z,28.07
2023-07-12T14:13:33.430Z,28.39
2023-07-12T14:14:37.016Z,30.59
2023-07-12T14:16:34.957Z,28.84
2023-07-12T14:17:40.167Z,28.64
2023-07-12T14:19:38.541Z,28.38
2023-07-12T14:20:42.210Z,27.91
2023-07-12T14:22:39.881Z,28.61
2023-07-12T14:23:43.609Z,27.19
2023-07-12T14:25:40.529Z,28.38
2023-07-12T14:26:43.842Z,27.64
2023-07-12T14:32:56.069Z,30.05
2023-07-12T14:34:01.617Z,27.64
2023-07-12T14:35:58.201Z,30.67
2023-07-12T14:37:01.797Z,27.49
2023-07-12T14:39:01.314Z,29.73
2023-07-12T14:40:04.737Z,29.15
2023-07-12T14:42:01.521Z,27.7
2023-07-12T14:43:04.706Z,27.99
2023-07-12T14:45:01.248Z,28.14
2023-07-12T14:46:04.728Z,28.29
2023-07-12T14:48:04.149Z,27.71
2023-07-12T14:49:07.689Z,30.08
2023-07-12T14:51:08.090Z,29.85
2023-07-12T14:52:30.976Z,28.73
2023-07-12T14:54:27.786Z,27.63
2023-07-12T14:55:40.053Z,27.79
2023-07-12T14:58:23.590Z,28.98
2023-07-12T14:59:27.158Z,26.81
2023-07-12T15:00:34.975Z,27.66
2023-07-12T15:01:39.141Z,30.96
2023-07-12T15:03:36.694Z,28.31
2023-07-12T15:04:40.138Z,30.46
2023-07-12T15:06:37.465Z,29.97
2023-07-12T15:07:40.874Z,28.1
2023-07-12T15:09:46.366Z,27.19
2023-07-12T15:10:49.689Z,29.72
2023-07-12T15:12:46.122Z,29.48
2023-07-12T15:13:49.550Z,27.99
2023-07-12T15:15:46.310Z,28.51
2023-07-12T15:16:49.737Z,29.64
2023-07-12T15:18:47.286Z,28.59
2023-07-12T15:19:50.707Z,27.6
2023-07-12T15:21:47.646Z,28.08
2023-07-12T15:22:52.523Z,27.3
2023-07-12T15:24:49.890Z,30.01
2023-07-12T15:25:53.300Z,28.96
2023-07-12T15:27:50.120Z,28.36
2023-07-12T15:28:53.359Z,29.41
2023-07-12T15:30:50.164Z,30.41
2023-07-12T15:31:53.570Z,29.88
2023-07-12T15:33:50.876Z,28.01
2023-07-12T15:34:57.635Z,27.87
2023-07-12T15:36:54.670Z,27.63
2023-07-12T15:37:57.980Z,27.23
2023-07-12T15:39:54.796Z,28.21
2023-07-12T15:40:58.255Z,27.61
2023-07-12T15:42:55.100Z,26.96
2023-07-12T15:43:59.073Z,30.12
2023-07-12T15:45:56.904Z,27.49
2023-07-12T15:47:00.609Z,29.64
2023-07-12T15:48:57.310Z,27.73
2023-07-12T15:50:00.577Z,30.59
2023-07-12T15:51:57.373Z,28.18
2023-07-12T15:53:00.426Z,28.41
2023-07-12T15:54:57.349Z,30.39
2023-07-12T15:56:00.779Z,27.11
2023-07-12T15:57:57.530Z,27.09
2023-07-12T15:59:00.960Z,27.06
2023-07-12T16:01:38.752Z,30.91
2023-07-12T16:03:35.654Z,27.23
2023-07-12T16:04:39.320Z,29.46
2023-07-12T16:06:07.759Z,28.21
2023-07-12T16:07:11.724Z,29.48
2023-07-12T16:09:09.829Z,27.67
2023-07-12T16:10:15.045Z,28.42
2023-07-12T16:12:11.902Z,27.22
2023-07-12T16:13:15.198Z,29.72
2023-07-12T16:15:17.742Z,29.76
2023-07-12T16:16:21.754Z,28.8
2023-07-12T16:18:19.620Z,26.88
2023-07-12T16:19:23.459Z,28.96
2023-07-12T16:21:20.035Z,28.68
2023-07-12T16:22:23.736Z,28.48
2023-07-12T16:24:20.454Z,26.65
2023-07-12T16:25:23.865Z,27.22
2023-07-12T16:27:20.996Z,25.91
2023-07-12T16:28:24.490Z,27.77
2023-07-12T16:30:21.308Z,26.66
2023-07-12T16:31:25.232Z,27.82
2023-07-12T16:33:22.294Z,26.72
2023-07-12T16:34:25.629Z,26.83
2023-07-12T16:36:22.962Z,27.13
2023-07-12T16:37:29.859Z,29.74
2023-07-12T16:39:27.190Z,26.07
2023-07-12T16:40:30.352Z,27
2023-07-12T16:42:27.581Z,29.45
2023-07-12T16:43:30.998Z,26.71
2023-07-12T16:45:27.824Z,27.47
2023-07-12T16:46:32.132Z,26.88
2023-07-12T16:48:29.323Z,27.17
2023-07-12T16:49:32.717Z,26.72
2023-07-12T16:51:29.813Z,26.13
2023-07-12T16:52:32.921Z,26.49
2023-07-12T16:54:32.320Z,29.53
2023-07-12T16:55:35.606Z,27.22
2023-07-12T16:57:33.100Z,26.76
2023-07-12T16:58:37.167Z,27.81
2023-07-12T17:00:36.877Z,26.1
2023-07-12T17:01:40.429Z,28.57
2023-07-12T17:03:38.038Z,27.78
2023-07-12T17:04:41.786Z,27.64
2023-07-12T17:06:39.486Z,27.79
2023-07-12T17:07:42.670Z,26.08
2023-07-12T17:09:39.252Z,26.58
2023-07-12T17:10:42.797Z,27.53
2023-07-12T17:12:39.553Z,27.18
2023-07-12T17:13:43.031Z,28.17
2023-07-12T17:15:39.955Z,27.57
2023-07-12T17:16:43.525Z,29.51
2023-07-12T17:18:41.464Z,27.9
2023-07-12T17:19:44.798Z,25.87
2023-07-12T17:21:41.717Z,27.51
2023-07-12T17:22:45.617Z,27.56
2023-07-12T17:24:43.134Z,26.41
2023-07-12T17:25:47.049Z,28.66
2023-07-12T17:27:44.213Z,25.73
2023-07-12T17:28:47.511Z,27.98
2023-07-12T17:30:44.116Z,25.68
2023-07-12T17:31:48.012Z,24.74
2023-07-12T17:33:45.872Z,24.95
2023-07-12T17:34:49.283Z,25.07
2023-07-12T17:36:46.046Z,24.99
2023-07-12T17:37:49.523Z,24.31
2023-07-12T17:39:58.845Z,25.01
2023-07-12T17:41:08.061Z,24.9
2023-07-12T17:43:04.826Z,32.07
2023-07-12T17:44:08.001Z,24.52
2023-07-12T17:46:05.286Z,24.33
2023-07-12T17:47:09.592Z,25.06
2023-07-12T17:49:06.310Z,26.83
2023-07-12T17:50:09.695Z,27.46
2023-07-12T17:52:06.372Z,25.03
2023-07-12T17:53:09.914Z,26.22
2023-07-12T17:55:06.675Z,23.4
2023-07-12T17:56:10.545Z,23.96
2023-07-12T17:58:07.579Z,25.48
2023-07-12T17:59:12.777Z,23.79
2023-07-12T18:01:39.197Z,24.24
2023-07-12T18:03:37.748Z,25.28
2023-07-12T18:04:41.232Z,24.25
2023-07-12T18:06:39.791Z,23.33
2023-07-12T18:07:43.023Z,23.87
2023-07-12T18:09:40.001Z,23.69
2023-07-12T18:10:43.459Z,23.16
2023-07-12T18:12:40.197Z,24.99
2023-07-12T18:13:43.560Z,25.17
2023-07-12T18:15:40.512Z,23.85
2023-07-12T18:16:44.440Z,24.77
2023-07-12T18:18:41.590Z,22.46
2023-07-12T18:19:45.116Z,23.29
2023-07-12T18:21:41.911Z,25.9
2023-07-12T18:22:45.575Z,25.54
2023-07-12T18:24:42.612Z,23.57
2023-07-12T18:25:46.212Z,24.39
2023-07-12T18:27:43.361Z,23.68
2023-07-12T18:28:46.621Z,24
2023-07-12T18:30:43.593Z,23.12
2023-07-12T18:31:47.836Z,23.63
2023-07-12T18:33:45.351Z,26.16
2023-07-12T18:34:48.937Z,23.13
2023-07-12T18:36:45.930Z,23.42
2023-07-12T18:37:49.234Z,24.23
2023-07-12T18:39:46.212Z,24.75
2023-07-12T18:40:49.837Z,22.32
2023-07-12T18:42:46.643Z,22.51
2023-07-12T18:43:50.132Z,24.16
2023-07-12T18:45:47.143Z,23.18
2023-07-12T18:46:51.125Z,23.42
2023-07-12T18:48:47.826Z,23.61
2023-07-12T18:49:50.938Z,23.02
2023-07-12T18:51:47.832Z,23.65
2023-07-12T18:52:51.386Z,23.16
2023-07-12T18:54:48.295Z,23.15
2023-07-12T18:55:51.787Z,22.4
2023-07-12T18:57:48.622Z,23.62
2023-07-12T18:58:52.281Z,22.92
2023-07-12T19:00:34.714Z,25.5
2023-07-12T19:01:38.923Z,22.88
2023-07-12T19:03:37.372Z,23.09
2023-07-12T19:04:42.249Z,22.61
2023-07-12T19:06:39.275Z,22.63
2023-07-12T19:07:42.728Z,22.14
2023-07-12T19:09:39.744Z,22.43
2023-07-12T19:10:43.182Z,22.1
2023-07-12T19:12:40.035Z,22.46
2023-07-12T19:13:43.309Z,24.11
2023-07-12T19:15:40.292Z,22.1
2023-07-12T19:16:44.532Z,21.54
2023-07-12T19:18:42.876Z,22.34
2023-07-12T19:19:46.472Z,21.92
2023-07-12T19:21:46.791Z,21.09
2023-07-12T19:22:50.555Z,23.35
2023-07-12T19:24:47.849Z,21.91
2023-07-12T19:25:51.122Z,21.27
2023-07-12T19:28:05.260Z,21.68
2023-07-12T19:29:08.801Z,22.39
2023-07-12T19:31:06.243Z,21.28
2023-07-12T19:32:10.022Z,23.47
2023-07-12T19:34:07.179Z,21.2
2023-07-12T19:35:10.651Z,21.63
2023-07-12T19:37:08.837Z,21.17
2023-07-12T19:38:12.133Z,21.83
2023-07-12T19:40:09.130Z,20.89
2023-07-12T19:41:12.667Z,23.19
2023-07-12T19:43:11.536Z,23.29
2023-07-12T19:44:15.354Z,22.78
2023-07-12T19:46:12.252Z,22.35
2023-07-12T19:47:16.293Z,20.67
2023-07-12T19:49:13.380Z,22.3
2023-07-12T19:50:16.625Z,22.24
2023-07-12T19:52:13.270Z,20.31
2023-07-12T19:53:16.289Z,21.87
2023-07-12T19:55:16.609Z,22.78
2023-07-12T19:56:20.176Z,22.32
2023-07-12T19:58:18.248Z,20.35
2023-07-12T19:59:21.522Z,20.98
2023-07-12T20:00:35.712Z,22.78
2023-07-12T20:01:39.857Z,20.65
2023-07-12T20:03:37.373Z,22.35
2023-07-12T20:04:40.957Z,20.8
2023-07-12T20:06:38.243Z,20.29
2023-07-12T20:07:50.444Z,19.72
2023-07-12T20:09:47.226Z,21.32
2023-07-12T20:10:50.625Z,20.76
2023-07-12T20:12:47.315Z,20.69
2023-07-12T20:13:50.708Z,20.06
2023-07-12T20:15:47.505Z,20.08
2023-07-12T20:16:51.404Z,20.48
2023-07-12T20:18:49.107Z,20.13
2023-07-12T20:19:52.664Z,21.49
2023-07-12T20:21:52.104Z,20.94
2023-07-12T20:22:56.281Z,22.04
2023-07-12T20:24:53.331Z,19.87